createdAt,value
2018-06-28T00:00:21.187Z,19.30
2018-06-28T00:02:48.551Z,19.30
2018-06-28T00:05:15.914Z,19.20
2018-06-28T00:07:43.279Z,19.20
2018-06-28T00:10:10.604Z,19.10
2018-06-28T00:12:37.953Z,19.10
2018-06-28T00:15:05.586Z,19.00
2018-06-28T00:17:32.904Z,19.00
2018-06-28T00:20:00.292Z,19.00
2018-06-28T00:22:27.704Z,18.90
2018-06-28T00:24:55.060Z,18.90
2018-06-28T00:27:22.395Z,18.80
2018-06-28T00:29:49.724Z,18.90
2018-06-28T00:32:17.809Z,18.90
2018-06-28T00:34:45.144Z,18.80
2018-06-28T00:37:12.472Z,18.80
2018-06-28T00:39:39.886Z,18.80
2018-06-28T00:42:07.237Z,18.80
2018-06-28T00:44:34.584Z,18.70
2018-06-28T00:47:01.939Z,18.70
2018-06-28T00:49:29.332Z,18.60
2018-06-28T00:51:56.660Z,18.50
2018-06-28T00:54:24.281Z,18.50
2018-06-28T00:56:51.603Z,18.40
2018-06-28T00:59:18.937Z,18.40
2018-06-28T01:01:46.261Z,18.30
2018-06-28T01:04:13.608Z,18.30
2018-06-28T01:06:41.007Z,18.20
2018-06-28T01:09:08.883Z,18.20
2018-06-28T01:11:36.239Z,18.10
2018-06-28T01:14:03.571Z,18.10
2018-06-28T01:16:30.903Z,18.00
2018-06-28T01:18:58.226Z,18.00
2018-06-28T01:21:25.536Z,18.00
2018-06-28T01:23:52.893Z,18.10
2018-06-28T01:26:20.245Z,18.10
2018-06-28T01:28:47.603Z,18.20
2018-06-28T01:31:14.959Z,18.20
2018-06-28T01:33:42.338Z,18.30
2018-06-28T01:36:09.666Z,18.20
2018-06-28T01:41:04.274Z,18.30
2018-06-28T01:43:34.802Z,18.30
2018-06-28T01:46:02.176Z,18.40
2018-06-28T01:48:29.511Z,18.30
2018-06-28T01:50:57.107Z,18.30
2018-06-28T01:53:24.471Z,18.20
2018-06-28T01:55:51.767Z,18.10
2018-06-28T01:58:19.524Z,18.10
2018-06-28T02:00:46.875Z,18.10
2018-06-28T02:03:14.441Z,18.10
2018-06-28T02:05:41.812Z,18.00
2018-06-28T02:08:09.159Z,17.90
2018-06-28T02:10:36.647Z,17.90
2018-06-28T02:13:04.532Z,18.00
2018-06-28T02:15:32.000Z,18.00
2018-06-28T02:17:59.341Z,17.90
2018-06-28T02:20:26.869Z,17.80
2018-06-28T02:22:54.532Z,17.80
2018-06-28T02:25:21.835Z,17.70
2018-06-28T02:27:49.448Z,17.70
2018-06-28T02:30:16.767Z,17.70
2018-06-28T02:32:44.101Z,17.60
2018-06-28T02:35:11.420Z,17.60
2018-06-28T02:37:38.759Z,17.60
2018-06-28T02:40:06.307Z,17.60
2018-06-28T02:42:33.634Z,17.60
2018-06-28T02:45:00.978Z,17.50
2018-06-28T02:47:28.355Z,17.50
2018-06-28T02:49:55.686Z,17.40
2018-06-28T02:52:22.994Z,17.30
2018-06-28T02:54:50.358Z,17.40
2018-06-28T02:57:17.675Z,17.30
2018-06-28T02:59:45.072Z,17.30
2018-06-28T03:02:12.465Z,17.30
2018-06-28T03:04:39.816Z,17.30
2018-06-28T03:07:07.147Z,17.30
2018-06-28T03:09:34.552Z,17.40
2018-06-28T03:12:01.895Z,17.50
2018-06-28T03:14:29.228Z,17.50
2018-06-28T03:16:56.560Z,17.60
2018-06-28T03:19:23.920Z,17.60
2018-06-28T03:21:51.256Z,17.60
2018-06-28T03:24:19.004Z,17.60
2018-06-28T03:26:46.459Z,17.70
2018-06-28T03:29:14.007Z,17.70
2018-06-28T03:31:41.332Z,17.70
2018-06-28T03:34:08.664Z,17.60
2018-06-28T03:36:36.122Z,17.60
2018-06-28T03:39:05.455Z,17.60
2018-06-28T03:41:32.775Z,17.60
2018-06-28T03:44:00.181Z,17.60
2018-06-28T03:46:27.536Z,17.60
2018-06-28T03:48:54.872Z,17.50
2018-06-28T03:51:22.199Z,17.50
2018-06-28T03:53:49.542Z,17.60
2018-06-28T03:56:16.904Z,17.50
2018-06-28T03:58:44.270Z,17.60
2018-06-28T04:01:11.595Z,17.60
2018-06-28T04:03:38.979Z,17.60
2018-06-28T04:06:06.328Z,17.60
2018-06-28T04:08:33.656Z,17.60
2018-06-28T04:11:01.085Z,17.60
2018-06-28T04:13:28.456Z,17.70
2018-06-28T04:15:55.771Z,17.70
2018-06-28T04:18:23.203Z,17.70
2018-06-28T04:20:50.992Z,17.70
2018-06-28T04:23:18.436Z,17.70
2018-06-28T04:25:45.782Z,17.80
2018-06-28T04:28:13.151Z,17.90
2018-06-28T04:30:40.486Z,17.90
2018-06-28T04:33:07.850Z,17.90
2018-06-28T04:35:35.268Z,17.90
2018-06-28T04:38:02.636Z,17.90
2018-06-28T04:40:29.982Z,17.90
2018-06-28T04:42:57.311Z,18.00
2018-06-28T04:45:24.666Z,18.00
2018-06-28T04:47:51.999Z,17.90
2018-06-28T04:50:19.333Z,17.90
2018-06-28T04:52:46.665Z,17.90
2018-06-28T04:55:14.040Z,17.90
2018-06-28T04:57:41.347Z,17.80
2018-06-28T05:00:08.700Z,17.80
2018-06-28T05:02:36.055Z,17.80
2018-06-28T05:05:03.468Z,17.80
2018-06-28T05:07:30.822Z,17.80
2018-06-28T05:09:58.269Z,17.80
2018-06-28T05:12:25.713Z,17.80
2018-06-28T05:14:53.063Z,17.70
2018-06-28T05:17:20.496Z,17.70
2018-06-28T05:19:47.851Z,17.70
2018-06-28T05:22:15.298Z,17.70
2018-06-28T05:24:42.581Z,17.70
2018-06-28T05:27:09.912Z,17.70
2018-06-28T05:29:37.326Z,17.70
2018-06-28T05:32:04.695Z,17.70
2018-06-28T05:34:32.237Z,17.80
2018-06-28T05:36:59.569Z,17.90
2018-06-28T05:39:26.923Z,17.90
2018-06-28T05:41:54.280Z,17.80
2018-06-28T05:44:22.163Z,17.80
2018-06-28T05:46:49.497Z,17.90
2018-06-28T05:49:16.823Z,18.00
2018-06-28T05:51:44.206Z,17.90
2018-06-28T05:54:11.645Z,17.90
2018-06-28T05:59:06.395Z,18.10
2018-06-28T06:01:34.156Z,18.20
2018-06-28T06:04:01.616Z,18.30
2018-06-28T06:06:28.968Z,18.30
2018-06-28T06:08:56.304Z,18.40
2018-06-28T06:11:23.662Z,18.50
2018-06-28T06:13:51.080Z,18.60
2018-06-28T06:16:18.370Z,18.60
2018-06-28T06:18:45.728Z,18.70
2018-06-28T06:21:13.083Z,18.80
2018-06-28T06:23:40.464Z,18.80
2018-06-28T06:26:07.803Z,18.90
2018-06-28T06:28:35.182Z,19.00
2018-06-28T06:31:02.521Z,19.00
2018-06-28T06:33:29.876Z,19.00
2018-06-28T06:35:57.228Z,19.00
2018-06-28T06:38:24.599Z,19.00
2018-06-28T06:40:51.996Z,19.20
2018-06-28T06:43:19.346Z,19.30
2018-06-28T06:45:46.712Z,19.40
2018-06-28T06:48:14.180Z,19.50
2018-06-28T06:50:41.568Z,19.50
2018-06-28T06:53:08.923Z,19.50
2018-06-28T06:55:36.403Z,19.60
2018-06-28T06:58:03.744Z,19.70
2018-06-28T07:00:31.112Z,19.80
2018-06-28T07:02:58.550Z,19.90
2018-06-28T07:05:26.002Z,19.90
2018-06-28T07:07:53.468Z,20.00
2018-06-28T07:10:20.938Z,20.00
2018-06-28T07:12:48.196Z,20.10
2018-06-28T07:15:15.521Z,20.20
2018-06-28T07:17:42.926Z,20.20
2018-06-28T07:20:10.238Z,20.20
2018-06-28T07:22:37.590Z,20.30
2018-06-28T07:25:04.969Z,20.30
2018-06-28T07:27:32.301Z,20.40
2018-06-28T07:29:59.659Z,20.40
2018-06-28T07:32:27.008Z,20.50
2018-06-28T07:34:54.366Z,20.60
2018-06-28T07:37:21.723Z,20.70
2018-06-28T07:39:49.079Z,20.80
2018-06-28T07:42:16.620Z,20.90
2018-06-28T07:44:43.995Z,20.90
2018-06-28T07:47:11.544Z,21.00
2018-06-28T07:49:38.698Z,21.10
2018-06-28T07:52:06.156Z,21.20
2018-06-28T07:54:33.563Z,21.20
2018-06-28T07:57:00.937Z,21.30
2018-06-28T07:59:28.284Z,21.40
2018-06-28T08:01:55.617Z,21.40
2018-06-28T08:04:23.115Z,21.50
2018-06-28T08:06:50.494Z,21.60
2018-06-28T08:09:17.853Z,21.60
2018-06-28T08:11:45.306Z,21.70
2018-06-28T08:14:12.660Z,21.70
2018-06-28T08:16:39.993Z,21.80
2018-06-28T08:19:07.377Z,21.90
2018-06-28T08:21:34.762Z,22.00
2018-06-28T08:24:02.065Z,22.10
2018-06-28T08:26:29.394Z,22.10
2018-06-28T08:28:56.779Z,22.20
2018-06-28T08:31:31.333Z,22.30
2018-06-28T08:33:58.753Z,22.40
2018-06-28T08:36:26.091Z,22.40
2018-06-28T08:38:53.433Z,22.30
2018-06-28T08:41:20.812Z,22.40
2018-06-28T08:43:48.218Z,22.50
2018-06-28T08:46:15.540Z,22.60
2018-06-28T08:48:42.948Z,22.50
2018-06-28T08:51:10.307Z,22.50
2018-06-28T08:53:37.652Z,22.60
2018-06-28T08:56:05.072Z,22.70
2018-06-28T08:58:32.522Z,22.80
2018-06-28T09:00:59.986Z,22.90
2018-06-28T09:03:27.503Z,22.90
2018-06-28T09:05:55.273Z,23.00
2018-06-28T09:08:22.540Z,22.90
2018-06-28T09:10:49.903Z,23.10
2018-06-28T09:13:17.250Z,23.00
2018-06-28T09:15:44.620Z,23.10
2018-06-28T09:18:11.979Z,23.20
2018-06-28T09:20:39.486Z,23.30
2018-06-28T09:23:06.967Z,23.40
2018-06-28T09:25:34.236Z,23.50
2018-06-28T09:28:01.580Z,23.50
2018-06-28T09:30:28.956Z,23.60
2018-06-28T09:32:56.308Z,23.70
2018-06-28T09:35:23.656Z,23.70
2018-06-28T09:37:51.002Z,23.70
2018-06-28T09:40:18.359Z,23.70
2018-06-28T09:42:45.728Z,23.80
2018-06-28T09:45:13.069Z,23.90
2018-06-28T09:47:40.424Z,23.90
2018-06-28T09:50:07.782Z,24.00
2018-06-28T09:52:35.137Z,24.10
2018-06-28T09:55:02.505Z,24.10
2018-06-28T09:57:29.895Z,24.10
2018-06-28T09:59:57.616Z,24.10
2018-06-28T10:02:25.115Z,24.10
2018-06-28T10:04:52.427Z,24.20
2018-06-28T10:07:19.748Z,24.20
2018-06-28T10:09:47.119Z,24.30
2018-06-28T10:12:14.456Z,24.30
2018-06-28T10:14:41.922Z,24.30
2018-06-28T10:17:09.345Z,24.40
2018-06-28T10:19:36.700Z,24.50
2018-06-28T10:22:04.030Z,24.50
2018-06-28T10:24:31.648Z,24.60
2018-06-28T10:26:59.025Z,24.60
2018-06-28T10:29:26.842Z,24.70
2018-06-28T10:31:54.168Z,24.80
2018-06-28T10:34:21.521Z,24.80
2018-06-28T10:36:48.959Z,24.80
2018-06-28T10:39:16.335Z,24.90
2018-06-28T10:41:43.687Z,24.90
2018-06-28T10:44:11.022Z,24.80
2018-06-28T10:46:38.377Z,24.80
2018-06-28T10:49:05.907Z,24.80
2018-06-28T10:51:33.256Z,25.00
2018-06-28T10:54:00.725Z,25.10
2018-06-28T10:56:28.166Z,25.10
2018-06-28T10:58:55.644Z,25.10
2018-06-28T11:01:23.088Z,25.20
2018-06-28T11:06:17.730Z,25.00
2018-06-28T11:08:45.102Z,25.00
2018-06-28T11:11:12.455Z,25.10
2018-06-28T11:13:39.804Z,25.10
2018-06-28T11:16:07.217Z,25.30
2018-06-28T11:21:01.682Z,25.50
2018-06-28T11:23:29.125Z,25.60
2018-06-28T11:25:56.740Z,25.80
2018-06-28T11:28:27.023Z,25.90
2018-06-28T11:30:54.408Z,26.00
2018-06-28T11:33:21.724Z,26.10
2018-06-28T11:35:49.075Z,26.10
2018-06-28T11:38:16.523Z,26.20
2018-06-28T11:40:43.886Z,26.40
2018-06-28T11:43:11.244Z,26.50
2018-06-28T11:45:38.588Z,26.60
2018-06-28T11:48:05.960Z,26.50
2018-06-28T11:50:33.284Z,26.30
2018-06-28T11:53:00.635Z,26.20
2018-06-28T11:55:27.994Z,26.00
2018-06-28T11:57:55.352Z,26.00
2018-06-28T12:00:22.657Z,26.20
2018-06-28T12:02:50.012Z,26.60
2018-06-28T12:05:17.363Z,26.70
2018-06-28T12:07:44.725Z,26.70
2018-06-28T12:10:12.394Z,26.70
2018-06-28T12:12:39.714Z,26.80
2018-06-28T12:15:07.055Z,26.90
2018-06-28T12:17:34.408Z,27.00
2018-06-28T12:20:01.984Z,27.20
2018-06-28T12:22:29.378Z,27.50
2018-06-28T12:24:56.922Z,27.70
2018-06-28T12:27:24.264Z,27.70
2018-06-28T12:29:51.603Z,27.80
2018-06-28T12:32:18.976Z,27.60
2018-06-28T12:34:46.316Z,27.90
2018-06-28T12:39:40.819Z,27.30
2018-06-28T12:42:08.176Z,27.30
2018-06-28T12:44:35.528Z,27.80
2018-06-28T12:47:33.875Z,28.40
2018-06-28T12:50:01.253Z,29.30
2018-06-28T12:52:34.889Z,29.90
2018-06-28T12:55:02.285Z,30.50
2018-06-28T12:57:29.628Z,30.30
2018-06-28T12:59:57.072Z,30.40
2018-06-28T13:02:24.272Z,30.50
2018-06-28T13:04:51.649Z,31.40
2018-06-28T13:07:19.003Z,30.50
2018-06-28T13:09:46.359Z,29.50
2018-06-28T13:12:13.724Z,28.80
2018-06-28T13:14:41.063Z,28.70
2018-06-28T13:17:08.424Z,29.50
2018-06-28T13:19:35.759Z,30.80
2018-06-28T13:22:03.216Z,31.60
2018-06-28T13:24:30.576Z,31.50
2018-06-28T13:26:57.927Z,30.60
2018-06-28T13:29:25.268Z,29.40
2018-06-28T13:31:52.602Z,28.90
2018-06-28T13:36:47.175Z,30.20
2018-06-28T13:39:14.596Z,30.90
2018-06-28T13:41:42.215Z,31.30
2018-06-28T13:44:09.219Z,31.30
2018-06-28T13:46:36.575Z,31.10
2018-06-28T13:49:04.099Z,30.50
2018-06-28T13:51:31.387Z,30.10
2018-06-28T13:53:58.731Z,30.40
2018-06-28T13:56:26.105Z,31.40
2018-06-28T13:58:53.436Z,32.10
2018-06-28T14:01:20.759Z,32.40
2018-06-28T14:03:48.100Z,32.10
2018-06-28T14:06:15.467Z,30.70
2018-06-28T14:08:49.434Z,30.20
2018-06-28T14:11:16.783Z,30.00
2018-06-28T14:13:44.157Z,30.40
2018-06-28T14:16:11.483Z,31.10
2018-06-28T14:18:38.838Z,31.40
2018-06-28T14:21:06.253Z,31.70
2018-06-28T14:23:33.583Z,31.00
2018-06-28T14:26:00.964Z,30.00
2018-06-28T14:28:28.302Z,30.10
2018-06-28T14:30:55.651Z,30.40
2018-06-28T14:33:23.010Z,30.00
2018-06-28T14:35:50.334Z,29.90
2018-06-28T14:38:17.686Z,29.60
2018-06-28T14:40:45.058Z,29.20
2018-06-28T14:43:12.386Z,28.80
2018-06-28T14:45:39.759Z,29.30
2018-06-28T14:48:07.295Z,30.20
2018-06-28T14:50:34.684Z,29.80
2018-06-28T14:53:02.019Z,29.00
2018-06-28T14:55:29.438Z,28.60
2018-06-28T14:57:56.749Z,28.40
2018-06-28T15:00:24.098Z,28.20
2018-06-28T15:02:51.444Z,28.30
2018-06-28T15:05:18.791Z,29.00
2018-06-28T15:07:46.164Z,29.80
2018-06-28T15:10:13.496Z,30.20
2018-06-28T15:12:40.877Z,30.20
2018-06-28T15:15:08.256Z,30.20
2018-06-28T15:17:35.583Z,30.70
2018-06-28T15:20:02.939Z,31.20
2018-06-28T15:24:58.403Z,32.00
2018-06-28T15:27:25.772Z,32.30
2018-06-28T15:29:53.060Z,32.00
2018-06-28T15:32:20.415Z,31.20
2018-06-28T15:34:47.755Z,30.20
2018-06-28T15:37:15.081Z,29.60
2018-06-28T15:39:42.450Z,28.70
2018-06-28T15:42:09.788Z,28.30
2018-06-28T15:44:37.130Z,28.10
2018-06-28T15:47:04.447Z,29.20
2018-06-28T15:49:31.800Z,30.40
2018-06-28T15:51:59.269Z,30.20
2018-06-28T15:54:26.613Z,30.50
2018-06-28T15:56:53.967Z,30.80
2018-06-28T15:59:21.337Z,31.00
2018-06-28T16:01:48.664Z,31.40
2018-06-28T16:04:16.019Z,31.40
2018-06-28T16:06:43.375Z,31.10
2018-06-28T16:09:11.190Z,30.50
2018-06-28T16:14:05.859Z,29.10
2018-06-28T16:16:33.285Z,29.00
2018-06-28T16:19:00.680Z,29.10
2018-06-28T16:21:28.040Z,29.20
2018-06-28T16:23:55.439Z,29.10
2018-06-28T16:26:22.767Z,29.10
2018-06-28T16:28:50.095Z,28.70
2018-06-28T16:33:44.628Z,28.40
2018-06-28T16:36:11.972Z,28.30
2018-06-28T16:38:39.335Z,28.30
2018-06-28T16:41:06.644Z,28.10
2018-06-28T16:43:34.011Z,28.10
2018-06-28T16:46:01.376Z,27.70
2018-06-28T16:48:28.783Z,27.40
2018-06-28T16:50:56.170Z,27.60
2018-06-28T16:53:23.543Z,27.70
2018-06-28T16:55:50.897Z,27.80
2018-06-28T16:58:18.232Z,27.80
2018-06-28T17:00:45.591Z,27.70
2018-06-28T17:03:15.069Z,27.60
2018-06-28T17:05:42.695Z,27.50
2018-06-28T17:08:10.181Z,27.60
2018-06-28T17:10:37.675Z,27.70
2018-06-28T17:13:05.143Z,27.80
2018-06-28T17:15:33.207Z,27.90
2018-06-28T17:18:00.559Z,27.90
2018-06-28T17:20:27.943Z,27.90
2018-06-28T17:22:55.263Z,27.90
2018-06-28T17:25:22.587Z,27.90
2018-06-28T17:27:50.016Z,27.90
2018-06-28T17:30:17.387Z,27.80
2018-06-28T17:32:44.754Z,27.60
2018-06-28T17:35:12.213Z,27.60
2018-06-28T17:37:39.574Z,27.70
2018-06-28T17:40:06.976Z,27.80
2018-06-28T17:42:34.331Z,27.90
2018-06-28T17:45:01.683Z,28.10
2018-06-28T17:47:29.035Z,28.20
2018-06-28T17:49:56.400Z,28.10
2018-06-28T17:52:23.748Z,28.20
2018-06-28T17:54:51.099Z,28.20
2018-06-28T17:57:18.516Z,28.30
2018-06-28T17:59:45.863Z,28.50
2018-06-28T18:04:40.419Z,28.50
2018-06-28T18:07:07.757Z,28.40
2018-06-28T18:09:35.078Z,28.30
2018-06-28T18:12:02.419Z,28.30
2018-06-28T18:14:29.788Z,28.30
2018-06-28T18:16:57.128Z,28.40
2018-06-28T18:19:24.481Z,28.40
2018-06-28T18:21:51.803Z,28.30
2018-06-28T18:24:19.168Z,28.10
2018-06-28T18:26:46.527Z,27.90
2018-06-28T18:29:13.910Z,27.90
2018-06-28T18:31:41.257Z,27.90
2018-06-28T18:34:08.575Z,27.70
2018-06-28T18:36:35.931Z,27.40
2018-06-28T18:39:06.084Z,27.40
2018-06-28T18:41:34.164Z,27.20
2018-06-28T18:44:01.531Z,27.00
2018-06-28T18:46:28.901Z,26.80
2018-06-28T18:48:56.228Z,26.70
2018-06-28T18:51:23.648Z,26.60
2018-06-28T18:53:51.057Z,26.60
2018-06-28T18:56:18.415Z,26.50
2018-06-28T18:58:45.816Z,26.40
2018-06-28T19:01:13.174Z,26.30
2018-06-28T19:03:40.528Z,26.20
2018-06-28T19:06:07.880Z,26.10
2018-06-28T19:08:35.273Z,26.10
2018-06-28T19:11:02.577Z,26.00
2018-06-28T19:13:30.064Z,25.90
2018-06-28T19:16:03.069Z,25.80
2018-06-28T19:18:31.196Z,25.70
2018-06-28T19:21:04.215Z,25.60
2018-06-28T19:23:37.109Z,25.40
2018-06-28T19:26:04.713Z,25.30
2018-06-28T19:28:32.053Z,25.30
2018-06-28T19:31:04.936Z,25.20
2018-06-28T19:33:32.276Z,25.10
2018-06-28T19:35:59.694Z,25.00
2018-06-28T19:38:31.503Z,25.00
2018-06-28T19:41:04.341Z,24.90
2018-06-28T19:43:31.688Z,24.70
2018-06-28T19:45:59.022Z,24.70
2018-06-28T19:48:26.399Z,24.60
2018-06-28T19:51:58.126Z,24.50
2018-06-28T19:54:25.674Z,24.40
2018-06-28T19:56:53.010Z,24.30
2018-06-28T19:59:20.371Z,24.20
2018-06-28T20:01:53.245Z,24.10
2018-06-28T20:04:26.239Z,24.10
2018-06-28T20:06:53.645Z,24.00
2018-06-28T20:09:21.020Z,23.90
2018-06-28T20:11:48.361Z,23.80
2018-06-28T20:14:21.307Z,23.80
2018-06-28T20:19:27.099Z,23.70
2018-06-28T20:21:54.473Z,23.60
2018-06-28T20:24:21.927Z,23.50
2018-06-28T20:26:54.712Z,23.50
2018-06-28T20:29:27.708Z,23.50
2018-06-28T20:32:00.659Z,23.40
2018-06-28T20:34:28.035Z,23.30
2018-06-28T20:36:55.403Z,23.30
2018-06-28T20:39:22.731Z,23.30
2018-06-28T20:41:50.067Z,23.20
2018-06-28T20:44:17.429Z,23.20
2018-06-28T20:46:44.775Z,23.10
2018-06-28T20:49:12.144Z,23.00
2018-06-28T20:51:39.475Z,23.00
2018-06-28T20:54:06.895Z,23.00
2018-06-28T20:56:34.252Z,22.90
2018-06-28T20:59:01.754Z,22.90
2018-06-28T21:01:29.154Z,22.90
2018-06-28T21:03:56.497Z,22.80
2018-06-28T21:06:23.820Z,22.70
2018-06-28T21:08:51.127Z,22.70
2018-06-28T21:11:18.561Z,22.70
2018-06-28T21:13:46.021Z,22.60
2018-06-28T21:16:13.423Z,22.60
2018-06-28T21:18:40.747Z,22.60
2018-06-28T21:21:08.138Z,22.50
2018-06-28T21:23:36.246Z,22.50
2018-06-28T21:26:03.590Z,22.50
2018-06-28T21:28:30.975Z,22.40
2018-06-28T21:30:58.355Z,22.40
2018-06-28T21:33:25.685Z,22.30
2018-06-28T21:35:53.142Z,22.30
2018-06-28T21:38:20.499Z,22.30
2018-06-28T21:40:47.835Z,22.30
2018-06-28T21:43:15.191Z,22.30
2018-06-28T21:45:42.532Z,22.20
2018-06-28T21:48:09.874Z,22.20
2018-06-28T21:50:37.271Z,22.20
2018-06-28T21:53:04.642Z,22.10
2018-06-28T21:55:32.040Z,22.10
2018-06-28T21:57:59.355Z,22.10
2018-06-28T22:00:28.618Z,22.10
2018-06-28T22:02:55.904Z,22.00
2018-06-28T22:05:23.246Z,22.00
2018-06-28T22:07:50.612Z,22.00
2018-06-28T22:10:17.915Z,21.90
2018-06-28T22:12:45.263Z,22.00
2018-06-28T22:15:17.112Z,21.90
2018-06-28T22:17:44.475Z,21.90
2018-06-28T22:20:11.810Z,21.80
2018-06-28T22:22:39.175Z,21.80
2018-06-28T22:25:06.975Z,21.80
2018-06-28T22:27:34.357Z,21.70
2018-06-28T22:30:01.686Z,21.70
2018-06-28T22:32:29.057Z,21.70
2018-06-28T22:34:56.417Z,21.60
2018-06-28T22:37:23.748Z,21.60
2018-06-28T22:39:51.090Z,21.60
2018-06-28T22:42:18.404Z,21.60
2018-06-28T22:44:45.779Z,21.50
2018-06-28T22:47:13.114Z,21.50
2018-06-28T22:49:40.431Z,21.40
2018-06-28T22:52:07.852Z,21.30
2018-06-28T22:54:35.172Z,21.30
2018-06-28T22:57:02.531Z,21.30
2018-06-28T22:59:29.880Z,21.20
2018-06-28T23:01:57.240Z,21.30
2018-06-28T23:04:24.667Z,21.20
2018-06-28T23:06:51.926Z,21.20
2018-06-28T23:09:19.251Z,21.20
2018-06-28T23:11:46.605Z,21.20
2018-06-28T23:14:13.959Z,21.10
2018-06-28T23:16:41.292Z,21.10
2018-06-28T23:19:08.686Z,21.00
2018-06-28T23:21:35.981Z,21.00
2018-06-28T23:24:03.313Z,21.00
2018-06-28T23:26:30.696Z,20.90
2018-06-28T23:28:58.875Z,20.90
2018-06-28T23:31:26.215Z,20.90
2018-06-28T23:33:53.556Z,20.80
2018-06-28T23:36:20.879Z,20.80
2018-06-28T23:38:48.247Z,20.80
2018-06-28T23:41:15.627Z,20.80
2018-06-28T23:43:42.994Z,20.80
2018-06-28T23:46:10.341Z,20.70
2018-06-28T23:48:38.020Z,20.70
2018-06-28T23:51:05.360Z,20.70
2018-06-28T23:53:32.675Z,20.70
2018-06-28T23:56:00.100Z,20.60
2018-06-28T23:58:27.410Z,20.50
